createdAt,value
2023-01-19T07:59:39.509Z,17.43
2023-01-19T08:00:39.420Z,18.56
2023-01-19T08:01:39.522Z,19.46
2023-01-19T08:02:39.420Z,20.25
2023-01-19T08:03:39.427Z,20.90
2023-01-19T08:04:39.565Z,21.42
2023-01-19T08:05:39.420Z,21.84
2023-01-19T08:06:39.432Z,22.20
2023-01-19T08:07:39.499Z,22.51
2023-01-19T08:08:39.340Z,22.76
2023-01-19T08:09:39.330Z,22.97
2023-01-19T08:10:39.336Z,23.17
2023-01-19T08:11:39.340Z,23.37
2023-01-19T08:12:39.353Z,23.51
2023-01-19T08:13:39.431Z,23.66
2023-01-19T08:14:39.339Z,23.62
2023-01-19T08:15:39.366Z,23.65
2023-01-19T08:16:39.340Z,23.77
2023-01-19T08:17:39.349Z,23.91
2023-01-19T08:18:39.260Z,23.93
2023-01-19T08:19:41.543Z,24.07
2023-01-19T08:20:39.300Z,24.13
2023-01-19T08:21:39.294Z,24.16
2023-01-19T08:22:39.266Z,24.21
2023-01-19T08:23:39.302Z,24.32
2023-01-19T08:24:39.246Z,24.41
2023-01-19T08:25:39.259Z,24.48
2023-01-19T08:26:39.259Z,24.52
2023-01-19T08:27:39.264Z,24.56
2023-01-19T08:28:39.280Z,24.69
2023-01-19T08:29:39.179Z,24.75
2023-01-19T08:30:39.215Z,24.79
2023-01-19T08:31:39.334Z,24.89
2023-01-19T08:32:39.187Z,24.94
2023-01-19T08:33:39.262Z,24.80
2023-01-19T08:34:39.190Z,24.82
2023-01-19T08:35:39.283Z,25.02
2023-01-19T08:36:39.241Z,25.06
2023-01-19T08:37:39.204Z,25.14
2023-01-19T08:38:39.160Z,25.14
2023-01-19T08:39:39.291Z,25.15
2023-01-19T08:40:39.170Z,25.20
2023-01-19T08:41:39.186Z,25.17
2023-01-19T08:42:39.402Z,25.14
2023-01-19T08:43:39.249Z,25.14
2023-01-19T08:44:46.692Z,25.10
2023-01-19T08:45:40.091Z,24.90
2023-01-19T08:46:39.521Z,24.36
2023-01-19T08:47:39.222Z,24.32
2023-01-19T08:48:40.003Z,24.56
